createdAt,value
2022-08-28T00:00:00.277Z,5.30
2022-08-28T00:02:26.898Z,6.68
2022-08-28T00:04:53.623Z,6.75
2022-08-28T00:07:20.279Z,4.10
2022-08-28T00:09:46.975Z,7.63
2022-08-28T00:12:13.640Z,6.07
2022-08-28T00:14:40.679Z,5.18
2022-08-28T00:17:07.321Z,5.53
2022-08-28T00:19:38.464Z,6.55
2022-08-28T00:22:05.839Z,7.20
2022-08-28T00:24:32.434Z,7.57
2022-08-28T00:27:17.447Z,4.25
2022-08-28T00:29:45.706Z,4.63
2022-08-28T00:32:12.653Z,7.60
2022-08-28T00:34:39.648Z,8.40
2022-08-28T00:37:06.346Z,6.43
2022-08-28T00:39:32.951Z,4.20
2022-08-28T00:41:59.592Z,5.35
2022-08-28T00:44:27.778Z,8.10
2022-08-28T00:46:55.976Z,4.53
2022-08-28T00:49:31.014Z,6.57
2022-08-28T00:52:10.816Z,8.93
2022-08-28T00:54:39.009Z,6.00
2022-08-28T00:57:07.208Z,5.40
2022-08-28T00:59:34.476Z,5.78
2022-08-28T01:02:01.179Z,6.93
2022-08-28T01:04:30.060Z,5.15
2022-08-28T01:06:57.610Z,7.57
2022-08-28T01:09:25.789Z,6.28
2022-08-28T01:11:54.320Z,6.78
2022-08-28T01:14:23.254Z,6.65
2022-08-28T01:16:55.419Z,6.68
2022-08-28T01:19:48.347Z,8.35
2022-08-28T01:22:41.568Z,5.00
2022-08-28T01:25:11.468Z,5.75
2022-08-28T01:27:38.667Z,5.53
2022-08-28T01:30:05.380Z,6.20
2022-08-28T01:32:32.019Z,6.57
2022-08-28T01:35:02.051Z,6.50
2022-08-28T01:37:29.020Z,6.65
2022-08-28T01:39:55.616Z,7.78
2022-08-28T01:42:22.510Z,6.20
2022-08-28T01:44:50.169Z,4.07
2022-08-28T01:47:16.974Z,3.83
2022-08-28T01:49:43.733Z,4.68
2022-08-28T01:52:10.310Z,4.70
2022-08-28T01:54:38.499Z,5.30
2022-08-28T01:57:05.818Z,5.00
2022-08-28T01:59:33.294Z,7.00
2022-08-28T02:01:59.962Z,7.82
2022-08-28T02:04:31.724Z,4.43
2022-08-28T02:06:59.351Z,5.70
2022-08-28T02:09:25.935Z,5.68
2022-08-28T02:11:52.732Z,5.28
2022-08-28T02:14:19.382Z,5.20
2022-08-28T02:16:46.552Z,6.20
2022-08-28T02:19:13.274Z,5.80
2022-08-28T02:21:40.272Z,4.85
2022-08-28T02:24:07.026Z,5.07
2022-08-28T02:26:33.749Z,2.95
2022-08-28T02:29:00.700Z,7.50
2022-08-28T02:31:27.586Z,4.68
2022-08-28T02:33:55.604Z,6.13
2022-08-28T02:36:22.701Z,5.38
2022-08-28T02:38:54.048Z,5.95
2022-08-28T02:41:23.804Z,8.45
2022-08-28T02:43:50.566Z,8.13
2022-08-28T02:46:17.256Z,6.25
2022-08-28T02:48:44.824Z,4.07
2022-08-28T02:51:13.337Z,6.10
2022-08-28T02:53:40.520Z,7.68
2022-08-28T02:56:09.499Z,4.13
2022-08-28T02:58:39.433Z,6.72
2022-08-28T03:01:07.273Z,6.40
2022-08-28T03:03:33.892Z,5.85
2022-08-28T03:06:04.737Z,8.27
2022-08-28T03:08:32.291Z,7.63
2022-08-28T03:10:59.868Z,7.05
2022-08-28T03:13:27.442Z,5.70
2022-08-28T03:15:55.640Z,7.10
2022-08-28T03:18:22.967Z,9.65
2022-08-28T03:20:49.504Z,9.27
2022-08-28T03:23:28.032Z,7.38
2022-08-28T03:25:55.971Z,13.80
2022-08-28T03:28:23.015Z,6.97
2022-08-28T03:30:50.620Z,7.60
2022-08-28T03:33:17.791Z,11.23
2022-08-28T03:35:44.411Z,7.75
2022-08-28T03:38:11.719Z,8.20
2022-08-28T03:40:39.259Z,8.38
2022-08-28T03:43:06.973Z,9.10
2022-08-28T03:45:33.739Z,8.57
2022-08-28T03:48:03.919Z,8.18
2022-08-28T03:50:31.445Z,9.30
2022-08-28T03:52:59.314Z,9.80
2022-08-28T03:55:26.659Z,5.13
2022-08-28T03:57:53.274Z,8.60
2022-08-28T04:00:20.460Z,9.15
2022-08-28T04:02:47.092Z,9.45
2022-08-28T04:05:18.502Z,10.02
2022-08-28T04:07:45.187Z,11.13
2022-08-28T04:10:12.488Z,11.02
2022-08-28T04:12:39.148Z,11.73
2022-08-28T04:15:07.157Z,9.25
2022-08-28T04:17:33.981Z,9.70
2022-08-28T04:20:03.444Z,9.45
2022-08-28T04:22:30.307Z,12.07
2022-08-28T04:24:56.897Z,10.07
2022-08-28T04:27:23.560Z,8.98
2022-08-28T04:29:50.197Z,9.27
2022-08-28T04:32:17.027Z,10.23
2022-08-28T04:34:43.647Z,7.80
2022-08-28T04:37:10.292Z,8.05
2022-08-28T04:39:37.951Z,9.93
2022-08-28T04:42:04.611Z,8.30
2022-08-28T04:44:31.443Z,8.60
2022-08-28T04:46:57.979Z,7.45
2022-08-28T04:49:26.079Z,11.93
2022-08-28T04:51:52.871Z,8.07
2022-08-28T04:54:21.175Z,7.50
2022-08-28T04:56:47.753Z,12.43
2022-08-28T04:59:14.431Z,7.45
2022-08-28T05:01:44.847Z,8.50
2022-08-28T05:04:14.265Z,7.63
2022-08-28T05:06:45.976Z,10.25
2022-08-28T05:09:17.516Z,9.18
2022-08-28T05:11:47.057Z,8.73
2022-08-28T05:14:16.271Z,8.43
2022-08-28T05:16:44.479Z,7.68
2022-08-28T05:19:11.193Z,8.23
2022-08-28T05:21:38.899Z,10.40
2022-08-28T05:24:06.442Z,8.98
2022-08-28T05:26:33.282Z,8.55
2022-08-28T05:29:00.574Z,7.95
2022-08-28T05:31:28.810Z,11.73
2022-08-28T05:33:55.670Z,5.45
2022-08-28T05:36:23.167Z,7.28
2022-08-28T05:38:55.583Z,12.25
2022-08-28T05:41:23.521Z,9.90
2022-08-28T05:43:50.152Z,8.00
2022-08-28T05:46:17.394Z,11.02
2022-08-28T05:48:45.610Z,6.50
2022-08-28T05:51:14.513Z,7.68
2022-08-28T05:53:43.017Z,8.40
2022-08-28T05:56:10.788Z,8.50
2022-08-28T05:58:37.823Z,7.45
2022-08-28T06:01:07.565Z,8.95
2022-08-28T06:03:34.150Z,8.68
2022-08-28T06:06:00.845Z,11.70
2022-08-28T06:08:32.314Z,9.50
2022-08-28T06:11:02.128Z,7.88
2022-08-28T06:13:30.324Z,7.43
2022-08-28T06:15:57.045Z,10.30
2022-08-28T06:18:24.316Z,8.35
2022-08-28T06:20:53.572Z,9.95
2022-08-28T06:23:23.815Z,10.52
2022-08-28T06:25:54.098Z,9.43
2022-08-28T06:28:25.291Z,11.60
2022-08-28T06:31:18.024Z,13.00
2022-08-28T06:33:38.946Z,8.93
2022-08-28T06:36:05.864Z,10.52
2022-08-28T06:38:34.756Z,14.35
2022-08-28T06:41:01.542Z,18.58
2022-08-28T06:43:29.476Z,11.27
2022-08-28T06:45:56.935Z,10.68
2022-08-28T06:48:25.098Z,15.23
2022-08-28T06:50:53.188Z,14.65
2022-08-28T06:53:21.579Z,12.68
2022-08-28T06:56:02.885Z,17.10
2022-08-28T06:58:31.336Z,11.93
2022-08-28T07:01:17.593Z,10.43
2022-08-28T07:03:45.387Z,18.40
2022-08-28T07:06:15.771Z,31.35
2022-08-28T07:08:43.312Z,29.42
2022-08-28T07:11:11.065Z,25.45
2022-08-28T07:13:37.692Z,25.60
2022-08-28T07:16:04.384Z,33.30
2022-08-28T07:18:30.969Z,34.22
2022-08-28T07:20:58.994Z,28.30
2022-08-28T07:23:26.200Z,23.98
2022-08-28T07:25:53.206Z,24.88
2022-08-28T07:28:20.012Z,23.65
2022-08-28T07:30:55.243Z,18.08
2022-08-28T07:33:21.882Z,19.60
2022-08-28T07:35:50.461Z,16.88
2022-08-28T07:38:17.222Z,14.93
2022-08-28T07:40:43.833Z,13.95
2022-08-28T07:43:29.262Z,11.98
2022-08-28T07:46:00.000Z,12.27
2022-08-28T07:48:27.237Z,13.13
2022-08-28T07:50:54.214Z,10.98
2022-08-28T07:53:21.035Z,11.90
2022-08-28T07:55:50.005Z,13.18
2022-08-28T07:58:16.796Z,11.52
2022-08-28T08:00:43.370Z,12.43
2022-08-28T08:03:10.027Z,9.77
2022-08-28T08:05:37.379Z,9.10
2022-08-28T08:08:04.040Z,11.15
2022-08-28T08:10:33.929Z,21.95
2022-08-28T08:13:00.976Z,10.13
2022-08-28T08:15:31.257Z,7.88
2022-08-28T08:17:58.052Z,9.93
2022-08-28T08:20:24.673Z,6.68
2022-08-28T08:22:51.233Z,14.23
2022-08-28T08:25:17.848Z,10.02
2022-08-28T08:27:46.115Z,7.95
2022-08-28T08:30:12.785Z,9.98
2022-08-28T08:32:40.009Z,7.72
2022-08-28T08:35:06.852Z,11.50
2022-08-28T08:37:33.482Z,8.57
2022-08-28T08:40:00.171Z,7.50
2022-08-28T08:42:30.067Z,9.50
2022-08-28T08:44:58.294Z,11.90
2022-08-28T08:47:43.775Z,8.55
2022-08-28T08:50:17.306Z,8.88
2022-08-28T08:53:02.686Z,10.00
2022-08-28T08:55:31.997Z,6.38
2022-08-28T08:58:22.558Z,8.80
2022-08-28T09:00:52.277Z,8.13
2022-08-28T09:03:45.494Z,11.50
2022-08-28T09:06:20.059Z,7.93
2022-08-28T09:08:48.854Z,7.93
2022-08-28T09:11:18.385Z,7.88
2022-08-28T09:13:57.983Z,6.38
2022-08-28T09:16:29.832Z,6.25
2022-08-28T09:18:58.052Z,8.15
2022-08-28T09:21:30.182Z,7.55
2022-08-28T09:24:00.233Z,6.82
2022-08-28T09:26:29.967Z,7.20
2022-08-28T09:29:17.272Z,5.55
2022-08-28T09:31:44.514Z,7.32
2022-08-28T09:34:27.860Z,9.90
2022-08-28T09:36:56.349Z,5.60
2022-08-28T09:39:24.715Z,5.78
2022-08-28T09:42:11.007Z,5.55
2022-08-28T09:44:53.025Z,7.80
2022-08-28T09:47:45.956Z,5.32
2022-08-28T09:50:33.961Z,5.70
2022-08-28T09:53:14.699Z,7.05
2022-08-28T09:56:03.568Z,6.15
2022-08-28T09:58:33.648Z,6.40
2022-08-28T10:01:07.742Z,5.88
2022-08-28T10:06:21.230Z,8.77
2022-08-28T10:09:17.182Z,6.43
2022-08-28T10:11:52.496Z,8.05
2022-08-28T10:14:26.026Z,4.03
2022-08-28T10:17:00.476Z,5.55
2022-08-28T10:19:29.969Z,5.13
2022-08-28T10:22:06.447Z,7.88
2022-08-28T10:24:35.978Z,4.97
2022-08-28T10:27:02.577Z,5.55
2022-08-28T10:29:43.056Z,8.68
2022-08-28T10:32:28.159Z,7.20
2022-08-28T10:35:24.731Z,7.22
2022-08-28T10:38:10.238Z,6.70
2022-08-28T10:40:36.887Z,6.28
2022-08-28T10:43:12.611Z,6.00
2022-08-28T10:45:39.461Z,4.78
2022-08-28T10:48:06.064Z,8.48
2022-08-28T10:50:38.903Z,4.82
2022-08-28T10:53:12.844Z,6.38
2022-08-28T10:55:54.693Z,8.48
2022-08-28T10:58:24.925Z,7.60
2022-08-28T11:00:54.177Z,5.75
2022-08-28T11:03:34.075Z,6.60
2022-08-28T11:06:07.793Z,3.78
2022-08-28T11:08:35.487Z,4.72
2022-08-28T11:11:03.096Z,5.97
2022-08-28T11:13:48.689Z,4.63
2022-08-28T11:16:31.177Z,7.10
2022-08-28T11:19:14.419Z,6.93
2022-08-28T11:21:52.535Z,5.40
2022-08-28T11:24:43.575Z,4.57
2022-08-28T11:27:23.119Z,6.03
2022-08-28T11:30:08.572Z,4.22
2022-08-28T11:32:35.095Z,7.55
2022-08-28T11:35:10.676Z,4.82
2022-08-28T11:37:39.353Z,4.63
2022-08-28T11:40:24.658Z,4.82
2022-08-28T11:42:51.240Z,5.22
2022-08-28T11:45:18.900Z,6.30
2022-08-28T11:47:47.223Z,4.15
2022-08-28T11:50:22.531Z,4.45
2022-08-28T11:52:52.177Z,4.72
2022-08-28T11:55:33.819Z,5.45
2022-08-28T12:00:39.549Z,5.70
2022-08-28T12:03:13.886Z,5.10
2022-08-28T12:05:45.478Z,6.38
2022-08-28T12:08:13.520Z,5.68
2022-08-28T12:10:46.487Z,3.95
2022-08-28T12:13:32.972Z,4.07
2022-08-28T12:16:05.036Z,5.03
2022-08-28T12:18:42.724Z,7.65
2022-08-28T12:21:14.769Z,5.43
2022-08-28T12:23:58.909Z,3.50
2022-08-28T12:26:30.987Z,6.03
2022-08-28T12:28:57.594Z,5.80
2022-08-28T12:31:47.347Z,8.23
2022-08-28T12:34:32.565Z,6.30
2022-08-28T12:37:00.390Z,10.05
2022-08-28T12:39:28.426Z,4.13
2022-08-28T12:41:55.218Z,4.40
2022-08-28T12:44:30.172Z,4.65
2022-08-28T12:46:57.130Z,5.85
2022-08-28T12:49:26.834Z,8.73
2022-08-28T12:52:06.774Z,6.95
2022-08-28T12:54:34.825Z,6.05
2022-08-28T12:57:04.929Z,3.17
2022-08-28T12:59:34.849Z,3.15
2022-08-28T13:02:02.948Z,5.85
2022-08-28T13:04:34.413Z,5.13
2022-08-28T13:07:05.229Z,4.55
2022-08-28T13:09:31.905Z,5.75
2022-08-28T13:11:58.662Z,6.28
2022-08-28T13:14:38.665Z,6.82
2022-08-28T13:17:07.952Z,4.57
2022-08-28T13:19:35.176Z,3.90
2022-08-28T13:22:03.900Z,5.00
2022-08-28T13:24:39.023Z,3.80
2022-08-28T13:27:07.780Z,6.22
2022-08-28T13:29:37.040Z,3.35
2022-08-28T13:32:07.661Z,4.88
2022-08-28T13:34:35.484Z,6.88
2022-08-28T13:37:04.240Z,7.72
2022-08-28T13:39:36.333Z,3.20
2022-08-28T13:42:08.392Z,6.18
2022-08-28T13:44:37.407Z,4.57
2022-08-28T13:47:06.801Z,3.83
2022-08-28T13:49:34.543Z,6.45
2022-08-28T13:52:02.251Z,5.55
2022-08-28T13:54:30.341Z,3.85
2022-08-28T13:56:58.453Z,4.70
2022-08-28T13:59:25.287Z,2.67
2022-08-28T14:02:12.968Z,6.32
2022-08-28T14:04:40.135Z,5.78
2022-08-28T14:07:08.007Z,3.85
2022-08-28T14:09:35.640Z,4.80
2022-08-28T14:12:03.312Z,5.68
2022-08-28T14:14:29.887Z,3.28
2022-08-28T14:16:56.615Z,5.32
2022-08-28T14:19:23.638Z,5.88
2022-08-28T14:21:51.114Z,4.43
2022-08-28T14:24:18.053Z,6.25
2022-08-28T14:26:45.762Z,5.82
2022-08-28T14:29:12.955Z,4.63
2022-08-28T14:31:41.214Z,5.05
2022-08-28T14:34:08.936Z,6.38
2022-08-28T14:36:36.757Z,6.55
2022-08-28T14:39:07.508Z,2.90
2022-08-28T14:41:34.590Z,3.78
2022-08-28T14:44:01.508Z,4.68
2022-08-28T14:46:29.676Z,4.90
2022-08-28T14:48:57.749Z,3.70
2022-08-28T14:51:24.724Z,7.07
2022-08-28T14:53:52.049Z,4.65
2022-08-28T14:56:19.320Z,2.45
2022-08-28T14:58:45.884Z,6.68
2022-08-28T15:01:40.420Z,4.25
2022-08-28T15:04:09.462Z,6.50
2022-08-28T15:06:36.753Z,5.18
2022-08-28T15:09:04.097Z,9.25
2022-08-28T15:11:30.968Z,4.93
2022-08-28T15:13:58.739Z,6.43
2022-08-28T15:16:30.064Z,5.18
2022-08-28T15:18:58.112Z,5.75
2022-08-28T15:21:24.679Z,5.60
2022-08-28T15:23:52.034Z,3.17
2022-08-28T15:26:20.009Z,5.90
2022-08-28T15:28:46.706Z,3.08
2022-08-28T15:31:13.354Z,4.15
2022-08-28T15:33:44.628Z,2.50
2022-08-28T15:36:12.788Z,4.80
2022-08-28T15:38:58.119Z,2.97
2022-08-28T15:41:24.782Z,3.80
2022-08-28T15:43:55.352Z,3.53
2022-08-28T15:46:23.077Z,6.35
2022-08-28T15:48:50.278Z,9.25
2022-08-28T15:51:25.596Z,4.03
2022-08-28T15:53:52.756Z,5.40
2022-08-28T15:56:20.062Z,2.80
2022-08-28T15:58:46.662Z,7.10
2022-08-28T16:01:13.774Z,7.82
2022-08-28T16:03:41.123Z,10.05
2022-08-28T16:06:12.906Z,10.45
2022-08-28T16:08:39.495Z,11.18
2022-08-28T16:11:06.415Z,10.68
2022-08-28T16:13:33.051Z,13.25
2022-08-28T16:15:59.715Z,11.45
2022-08-28T16:18:26.431Z,9.45
2022-08-28T16:20:52.956Z,7.70
2022-08-28T16:23:19.569Z,7.07
2022-08-28T16:25:46.229Z,9.07
2022-08-28T16:28:12.832Z,8.63
2022-08-28T16:30:43.777Z,6.85
2022-08-28T16:33:11.289Z,5.07
2022-08-28T16:35:39.295Z,7.22
2022-08-28T16:38:17.879Z,6.43
2022-08-28T16:40:45.237Z,8.90
2022-08-28T16:43:12.425Z,4.70
2022-08-28T16:45:41.456Z,5.15
2022-08-28T16:48:08.187Z,4.97
2022-08-28T16:50:34.721Z,5.00
2022-08-28T16:53:06.332Z,6.35
2022-08-28T16:55:33.866Z,6.85
2022-08-28T16:58:00.577Z,4.20
2022-08-28T17:00:27.261Z,5.57
2022-08-28T17:02:54.051Z,3.28
2022-08-28T17:05:20.696Z,5.22
2022-08-28T17:07:47.849Z,4.50
2022-08-28T17:10:15.518Z,2.28
2022-08-28T17:12:42.089Z,3.47
2022-08-28T17:15:09.354Z,5.85
2022-08-28T17:17:38.301Z,6.78
2022-08-28T17:20:06.083Z,4.80
2022-08-28T17:22:35.084Z,2.78
2022-08-28T17:25:07.657Z,5.50
2022-08-28T17:27:34.497Z,3.55
2022-08-28T17:30:05.057Z,4.97
2022-08-28T17:32:32.220Z,4.80
2022-08-28T17:34:58.981Z,4.70
2022-08-28T17:37:25.627Z,6.65
2022-08-28T17:39:53.627Z,3.53
2022-08-28T17:42:20.278Z,3.33
2022-08-28T17:44:47.005Z,3.60
2022-08-28T17:47:13.674Z,4.32
2022-08-28T17:49:40.639Z,5.57
2022-08-28T17:52:07.286Z,3.25
2022-08-28T17:54:33.906Z,3.45
2022-08-28T17:57:00.722Z,5.22
2022-08-28T17:59:27.818Z,2.65
2022-08-28T18:01:54.695Z,6.00
2022-08-28T18:04:24.507Z,6.88
2022-08-28T18:06:54.040Z,3.85
2022-08-28T18:09:21.192Z,3.17
2022-08-28T18:11:47.852Z,2.22
2022-08-28T18:14:14.574Z,5.28
2022-08-28T18:16:41.215Z,4.25
2022-08-28T18:19:08.679Z,3.90
2022-08-28T18:21:35.655Z,2.47
2022-08-28T18:24:02.419Z,5.68
2022-08-28T18:26:29.006Z,4.28
2022-08-28T18:28:56.148Z,3.60
2022-08-28T18:31:23.407Z,4.97
2022-08-28T18:33:50.135Z,4.63
2022-08-28T18:36:17.130Z,5.05
2022-08-28T18:38:44.132Z,5.82
2022-08-28T18:41:10.909Z,4.13
2022-08-28T18:43:37.707Z,4.43
2022-08-28T18:46:05.101Z,4.28
2022-08-28T18:48:32.105Z,6.38
2022-08-28T18:50:58.655Z,3.55
2022-08-28T18:53:25.333Z,4.35
2022-08-28T18:55:53.805Z,4.47
2022-08-28T18:58:21.338Z,4.82
2022-08-28T19:00:48.167Z,5.20
2022-08-28T19:03:15.571Z,2.85
2022-08-28T19:05:42.329Z,3.58
2022-08-28T19:08:09.151Z,2.67
2022-08-28T19:10:36.914Z,3.30
2022-08-28T19:13:04.262Z,4.03
2022-08-28T19:15:31.526Z,6.32
2022-08-28T19:18:02.435Z,3.03
2022-08-28T19:20:29.590Z,5.53
2022-08-28T19:22:56.980Z,4.32
2022-08-28T19:25:27.900Z,4.03
2022-08-28T19:27:56.348Z,2.47
2022-08-28T19:30:27.143Z,4.68
2022-08-28T19:32:53.933Z,5.65
2022-08-28T19:35:20.683Z,4.10
2022-08-28T19:37:51.259Z,1.98
2022-08-28T19:40:17.891Z,2.53
2022-08-28T19:42:44.537Z,3.53
2022-08-28T19:45:12.865Z,3.00
2022-08-28T19:47:40.127Z,2.83
2022-08-28T19:50:08.441Z,4.43
2022-08-28T19:52:36.381Z,2.33
2022-08-28T19:55:06.066Z,2.33
2022-08-28T19:57:33.012Z,3.75
2022-08-28T20:00:00.191Z,2.42
2022-08-28T20:02:27.282Z,3.45
2022-08-28T20:04:54.555Z,2.58
2022-08-28T20:07:21.320Z,2.58
2022-08-28T20:09:47.960Z,5.22
2022-08-28T20:12:14.656Z,3.97
2022-08-28T20:14:42.672Z,2.85
2022-08-28T20:17:09.297Z,4.35
2022-08-28T20:19:36.004Z,2.78
2022-08-28T20:22:06.815Z,2.30
2022-08-28T20:24:33.611Z,4.00
2022-08-28T20:27:00.192Z,2.90
2022-08-28T20:29:26.963Z,2.97
2022-08-28T20:31:54.268Z,3.83
2022-08-28T20:34:21.371Z,4.10
2022-08-28T20:36:48.377Z,5.05
2022-08-28T20:39:15.582Z,4.72
2022-08-28T20:41:42.606Z,3.13
2022-08-28T20:44:10.460Z,3.08
2022-08-28T20:46:40.860Z,3.33
2022-08-28T20:49:09.435Z,10.20
2022-08-28T20:51:56.345Z,3.92
2022-08-28T20:54:30.118Z,4.50
2022-08-28T20:56:57.895Z,5.47
2022-08-28T20:59:34.395Z,4.45
2022-08-28T21:02:07.972Z,5.20
2022-08-28T21:04:36.867Z,3.42
2022-08-28T21:07:05.863Z,6.57
2022-08-28T21:09:35.879Z,3.78
2022-08-28T21:12:19.868Z,2.75
2022-08-28T21:14:51.533Z,2.83
2022-08-28T21:17:22.605Z,4.25
2022-08-28T21:20:00.341Z,3.67
2022-08-28T21:22:27.111Z,2.90
2022-08-28T21:24:54.014Z,4.63
2022-08-28T21:27:20.621Z,2.92
2022-08-28T21:29:47.851Z,2.63
2022-08-28T21:32:17.404Z,6.13
2022-08-28T21:34:43.962Z,3.42
2022-08-28T21:37:10.809Z,3.95
2022-08-28T21:39:37.502Z,4.97
2022-08-28T21:42:04.040Z,3.67
2022-08-28T21:44:30.626Z,7.38
2022-08-28T21:46:58.819Z,3.78
2022-08-28T21:49:25.580Z,3.65
2022-08-28T21:51:52.135Z,3.22
2022-08-28T21:54:23.119Z,4.93
2022-08-28T21:56:56.241Z,5.05
2022-08-28T21:59:25.422Z,4.68
2022-08-28T22:01:55.100Z,3.97
2022-08-28T22:04:21.778Z,2.53
2022-08-28T22:06:48.394Z,3.05
2022-08-28T22:09:15.015Z,2.65
2022-08-28T22:11:41.636Z,3.38
2022-08-28T22:14:08.354Z,4.00
2022-08-28T22:16:35.006Z,6.40
2022-08-28T22:19:01.572Z,6.32
2022-08-28T22:21:47.145Z,4.45
2022-08-28T22:24:13.831Z,5.07
2022-08-28T22:26:40.928Z,2.53
2022-08-28T22:29:08.147Z,6.32
2022-08-28T22:31:35.163Z,5.40
2022-08-28T22:34:04.249Z,5.88
2022-08-28T22:36:33.138Z,3.58
2022-08-28T22:38:59.689Z,5.60
2022-08-28T22:41:26.692Z,4.07
2022-08-28T22:43:53.312Z,3.72
2022-08-28T22:46:20.686Z,3.85
2022-08-28T22:48:47.844Z,10.65
2022-08-28T22:51:15.737Z,5.78
2022-08-28T22:53:43.729Z,5.10
2022-08-28T22:56:11.716Z,4.32
2022-08-28T22:58:38.451Z,4.32
2022-08-28T23:01:07.231Z,5.80
2022-08-28T23:03:34.386Z,4.93
2022-08-28T23:06:01.134Z,3.85
2022-08-28T23:08:33.865Z,3.67
2022-08-28T23:11:00.968Z,2.80
2022-08-28T23:13:27.929Z,3.45
2022-08-28T23:15:54.489Z,4.43
2022-08-28T23:18:21.206Z,5.78
2022-08-28T23:20:50.550Z,3.85
2022-08-28T23:23:20.856Z,3.75
2022-08-28T23:25:47.537Z,4.10
2022-08-28T23:28:14.296Z,5.70
2022-08-28T23:30:44.090Z,3.47
2022-08-28T23:33:19.778Z,6.07
2022-08-28T23:35:51.631Z,4.90
2022-08-28T23:38:18.323Z,3.30
2022-08-28T23:40:46.118Z,4.68
2022-08-28T23:43:12.739Z,4.15
2022-08-28T23:45:41.673Z,4.00
2022-08-28T23:48:08.498Z,3.85
2022-08-28T23:50:35.406Z,2.92
2022-08-28T23:53:03.675Z,6.07
2022-08-28T23:55:30.925Z,3.83
2022-08-28T23:58:02.957Z,4.20
